Time;durP1;ratioP1;P1;durP2;ratioP2;P2;SDS_P1;SDS_P2;PMS_P1;PMS_P2;Temp;Humidity;BMP_temperature;BMP_pressure;BME280_temperature;BME280_humidity;BME280_pressure;Samples;Min_cycle;Max_cycle;Signal;HPM_P1;HPM_P2
2021/03/07 00:01:50;;;;;;;;;;;;;;;;;;5054356;28;19913;-73
2021/03/07 00:04:16;;;;;;;;;;;;;;;;;;5055184;28;19909;-71
2021/03/07 00:06:42;;;;;;;;;;;;;;;;;;5055594;28;19913;-70
2021/03/07 00:09:08;;;;;;;;;;;;;;;;;;5054287;28;19920;-71
2021/03/07 00:11:33;;;;;;;;;;;;;;;;;;5052870;28;19997;-72
2021/03/07 00:13:59;;;;;;;;;;;;;;;;;;5055758;28;20330;-73
2021/03/07 00:16:25;;;;;;;;;;;;;;;;;;5072580;28;19921;-72
2021/03/07 00:18:51;;;;;;;;;;;;;;;;;;5065126;28;19913;-73
2021/03/07 00:21:17;;;;;;;;;;;;;;;;;;5064170;28;19939;-72
2021/03/07 00:23:43;;;;;;;;;;;;;;;;;;5054273;28;20366;-76
2021/03/07 00:26:09;;;;;;;;;;;;;;;;;;5056167;28;20030;-74
2021/03/07 00:28:35;;;;;;;;;;;;;;;;;;5053831;28;20318;-73
2021/03/07 00:31:01;;;;;;;;;;;;;;;;;;5053808;28;20278;-71
2021/03/07 00:33:27;;;;;;;;;;;;;;;;;;5072449;28;19924;-71
2021/03/07 00:35:53;;;;;;;;;;;;;;;;;;5074114;28;20285;-73
2021/03/07 00:38:19;;;;;;;;;;;;;;;;;;5074910;28;19913;-73
2021/03/07 00:40:44;;;;;;;;;;;;;;;;;;5074718;28;19909;-72
2021/03/07 00:43:10;;;;;;;;;;;;;;;;;;5074084;28;19912;-75
2021/03/07 00:45:36;;;;;;;;;;;;;;;;;;5075348;28;19912;-74
2021/03/07 00:48:02;;;;;;;;;;;;;;;;;;5072491;28;19912;-74
2021/03/07 00:50:28;;;;;;;;;;;;;;;;;;5073508;28;20377;-77
2021/03/07 00:52:54;;;;;;;;;;;;;;;;;;5073792;28;19908;-72
2021/03/07 00:55:20;;;;;;;;;;;;;;;;;;5073558;28;19948;-72
2021/03/07 00:57:46;;;;;;;;;;;;;;;;;;5072043;28;20006;-74
2021/03/07 01:00:12;;;;;;;;;;;;;;;;;;5073528;28;19915;-69
2021/03/07 01:02:38;;;;;;;;;;;;;;;;;;5072056;28;19912;-72
2021/03/07 01:05:04;;;;;;;;;;;;;;;;;;5073444;28;20408;-70
2021/03/07 01:07:29;;;;;;;;;;;;;;;;;;5073332;28;19908;-73
2021/03/07 01:09:55;;;;;;;;;;;;;;;;;;5073487;28;19912;-72
2021/03/07 01:12:21;;;;;;;;;;;;;;;;;;5072906;28;19908;-73
2021/03/07 01:14:47;;;;;;;;;;;;;;;;;;5073293;28;19912;-71
2021/03/07 01:17:13;;;;;;;;;;;;;;;;;;5073033;28;20345;-71
2021/03/07 01:19:39;;;;;;;;;;;;;;;;;;5072549;28;19962;-72
2021/03/07 01:22:05;;;;;;;;;;;;;;;;;;5072331;28;19933;-71
2021/03/07 01:24:31;;;;;;;;;;;;;;;;;;5073005;28;19915;-72
2021/03/07 01:26:57;;;;;;;;;;;;;;;;;;5073281;28;19908;-70
2021/03/07 01:29:23;;;;;;;;;;;;;;;;;;5073597;28;19909;-70
2021/03/07 01:31:49;;;;;;;;;;;;;;;;;;5072121;28;19908;-71
2021/03/07 01:34:15;;;;;;;;;;;;;;;;;;5071267;28;19963;-73
2021/03/07 01:36:40;;;;;;;;;;;;;;;;;;5072013;28;20426;-70
2021/03/07 01:39:06;;;;;;;;;;;;;;;;;;5058960;28;19919;-70
2021/03/07 01:41:32;;;;;;;;;;;;;;;;;;5072516;28;19995;-72
2021/03/07 01:43:58;;;;;;;;;;;;;;;;;;5071537;28;19958;-69
2021/03/07 01:46:24;;;;;;;;;;;;;;;;;;5072952;28;19908;-68
2021/03/07 01:48:50;;;;;;;;;;;;;;;;;;5072732;28;19909;-71
2021/03/07 01:51:16;;;;;;;;;;;;;;;;;;5073167;28;19956;-70
2021/03/07 01:53:42;;;;;;;;;;;;;;;;;;5073064;28;20338;-71
2021/03/07 01:56:08;;;;;;;;;;;;;;;;;;5072295;28;19951;-70
2021/03/07 01:58:34;;;;;;;;;;;;;;;;;;5070883;28;20369;-71
2021/03/07 02:01:00;;;;;;;;;;;;;;;;;;5072559;28;19915;-69
2021/03/07 02:03:25;;;;;;;;;;;;;;;;;;5072369;28;19909;-73
2021/03/07 02:05:51;;;;;;;;;;;;;;;;;;5071215;28;19915;-71
2021/03/07 02:08:17;;;;;;;;;;;;;;;;;;5073057;28;20005;-70
2021/03/07 02:10:43;;;;;;;;;;;;;;;;;;5072141;28;19966;-70
2021/03/07 02:13:09;;;;;;;;;;;;;;;;;;5071407;28;19916;-70
2021/03/07 02:15:35;;;;;;;;;;;;;;;;;;5072686;28;20301;-71
2021/03/07 02:18:01;;;;;;;;;;;;;;;;;;5072345;28;19917;-70
2021/03/07 02:20:27;;;;;;;;;;;2.70;81.30;;;;;;5071102;28;19913;-71
2021/03/07 02:23:07;;;;;;;;;;;2.60;83.20;;;;;;5072563;28;19945;-70
2021/03/07 02:25:33;;;;;;;;;;;2.60;85.00;;;;;;5072373;28;19948;-69
2021/03/07 02:27:59;;;;;;;;;;;2.50;86.90;;;;;;5072457;28;19963;-71
2021/03/07 02:30:25;;;;;;;;;;;2.50;87.70;;;;;;5072790;28;19962;-70
2021/03/07 02:33:10;;;;;;;;;;;2.40;88.40;;;;;;5070978;28;19928;-70
2021/03/07 02:35:37;;;;;;;;;;;2.30;88.50;;;;;;5072438;28;19913;-70
2021/03/07 02:38:04;;;;;;;;;;;2.10;94.50;;;;;;5072368;28;20312;-69
2021/03/07 02:40:31;;;;;;;;;;;1.80;96.60;;;;;;5070401;28;19916;-69
2021/03/07 02:42:57;;;;;;;;;;;;;;;;;;5072459;28;19909;-69
2021/03/07 02:45:23;;;;;;;;;;;1.30;99.80;;;;;;5071225;28;20399;-70
2021/03/07 02:47:50;;;;;;;;;;;1.50;99.90;;;;;;5071724;28;19908;-69
2021/03/07 02:50:19;;;;;;;;;;;1.50;99.90;;;;;;5071411;28;19950;-68
2021/03/07 02:52:50;;;;;;;;;;;1.50;99.90;;;;;;5071306;28;19955;-72
2021/03/07 02:55:16;;;;;;;;;;;1.60;99.90;;;;;;5071920;28;19912;-72
2021/03/07 02:57:42;;;;;;;;;;;1.60;99.90;;;;;;5072214;28;19959;-73
2021/03/07 03:00:09;;;;;;;;;;;1.50;99.90;;;;;;5071159;28;20003;-73
2021/03/07 03:02:35;;;;;;;;;;;1.40;99.90;;;;;;5071540;28;19977;-72
2021/03/07 03:05:01;;;;;;;;;;;;;;;;;;5072537;28;19908;-72
2021/03/07 03:07:27;;;;;;;;;;;1.20;99.90;;;;;;5072351;28;20029;-72
2021/03/07 03:09:53;;;;;;;;;;;1.30;99.90;;;;;;5071999;28;19908;-72
2021/03/07 03:12:20;;;;;;;;;;;1.30;99.90;;;;;;5075628;28;19916;-70
2021/03/07 03:14:46;;;;;;;;;;;1.20;99.90;;;;;;5075528;28;19954;-70
2021/03/07 03:17:12;;;;;;;;;;;1.40;99.90;;;;;;5075160;28;20333;-70
2021/03/07 03:19:38;;;;;;;;;;;;;;;;;;5074453;28;19917;-70
2021/03/07 03:22:04;;;;;;;;;;;1.50;98.90;;;;;;5075695;28;19912;-70
2021/03/07 03:24:30;;;;;;;;;;;1.60;99.90;;;;;;5076223;28;20351;-69
2021/03/07 03:27:01;;;;;;;;;;;2.10;99.90;;;;;;5076071;28;20277;-71
2021/03/07 03:29:30;;;;;;;;;;;2.00;99.90;;;;;;5076262;28;19950;-70
2021/03/07 03:31:57;;;;;;;;;;;1.80;99.90;;;;;;5076036;28;19982;-69
2021/03/07 03:34:23;;;;;;;;;;;1.90;99.90;;;;;;5076574;28;19920;-69
2021/03/07 03:36:48;;;;;;;;;;;2.00;99.90;;;;;;5074312;28;19962;-70
2021/03/07 03:39:17;;;;;;;;;;;1.90;99.90;;;;;;5075867;28;20003;-70
2021/03/07 03:41:45;;;;;;;;;;;1.70;99.90;;;;;;5075798;28;19916;-70
2021/03/07 03:44:12;;;;;;;;;;;2.30;99.90;;;;;;5075321;28;19948;-71
2021/03/07 03:46:39;;;;;;;;;;;1.40;99.90;;;;;;5075761;28;20007;-73
2021/03/07 03:49:09;;;;;;;;;;;2.00;99.90;;;;;;5076133;28;20235;-69
2021/03/07 03:51:36;;;;;;;;;;;1.70;99.90;;;;;;5075553;28;19909;-70
2021/03/07 03:54:03;;;;;;;;;;;1.80;99.90;;;;;;5075485;28;19928;-70
2021/03/07 03:56:29;;;;;;;;;;;1.80;99.90;;;;;;5075708;28;19912;-71
2021/03/07 03:58:56;;;;;;;;;;;1.40;99.90;;;;;;5075078;28;19920;-70
2021/03/07 04:01:22;;;;;;;;;;;1.30;99.90;;;;;;5075818;28;19909;-73
2021/03/07 04:03:49;;;;;;;;;;;1.30;99.90;;;;;;5075407;28;19915;-69
2021/03/07 04:06:18;;;;;;;;;;;1.00;99.90;;;;;;5075180;28;20007;-71
2021/03/07 04:08:44;;;;;;;;;;;0.20;99.90;;;;;;5075360;28;19962;-70
2021/03/07 04:11:10;;;;;;;;;;;0.50;99.90;;;;;;5075064;28;19912;-70
2021/03/07 04:13:36;;;;;;;;;;;0.40;99.90;;;;;;5076046;28;19912;-69
2021/03/07 04:16:02;;;;;;;;;;;0.30;99.90;;;;;;5075310;28;19955;-70
2021/03/07 04:18:27;;;;;;;;;;;-0.10;99.90;;;;;;5075053;28;19921;-71
2021/03/07 04:20:54;;;;;;;;;;;-0.20;99.90;;;;;;5075093;28;19909;-70
2021/03/07 04:23:19;;;;;;;;;;;-0.20;99.90;;;;;;5075177;28;19914;-70
2021/03/07 04:25:45;;;;;;;;;;;-0.20;99.90;;;;;;5073687;28;19999;-71
2021/03/07 04:28:11;;;;;;;;;;;-0.10;99.90;;;;;;5075062;28;19916;-71
2021/03/07 04:30:37;;;;;;;;;;;0.10;99.90;;;;;;5075230;28;19909;-70
2021/03/07 04:33:04;;;;;;;;;;;0.30;99.90;;;;;;5074387;28;20361;-69
2021/03/07 04:35:29;;;;;;;;;;;0.30;99.90;;;;;;5074733;28;19909;-69
2021/03/07 04:38:03;;;;;;;;;;;0.40;99.90;;;;;;5074579;28;19920;-70
2021/03/07 04:40:29;;;;;;;;;;;0.40;99.90;;;;;;5074221;28;19916;-69
2021/03/07 04:42:55;;;;;;;;;;;0.30;99.90;;;;;;5074966;28;19909;-69
2021/03/07 04:45:21;;;;;;;;;;;0.00;99.90;;;;;;5075905;28;19912;-70
2021/03/07 04:47:46;;;;;;;;;;;0.40;99.90;;;;;;5075402;28;19909;-69
2021/03/07 04:50:12;;;;;;;;;;;;;;;;;;5076870;28;20417;-71
2021/03/07 04:52:38;;;;;;;;;;;-0.80;99.90;;;;;;5074727;28;19920;-71
2021/03/07 04:55:04;;;;;;;;;;;-0.70;99.90;;;;;;5074257;28;19908;-68
2021/03/07 04:57:29;;;;;;;;;;;-0.80;99.90;;;;;;5073202;28;19913;-70
2021/03/07 04:59:55;;;;;;;;;;;-0.90;99.90;;;;;;5074391;28;20261;-70
2021/03/07 05:02:21;;;;;;;;;;;-0.60;99.90;;;;;;5074510;28;19934;-70
2021/03/07 05:04:46;;;;;;;;;;;-0.50;99.90;;;;;;5075268;28;19953;-69
2021/03/07 05:07:12;;;;;;;;;;;-0.60;99.90;;;;;;5073988;28;19905;-70
2021/03/07 05:09:37;;;;;;;;;;;-0.30;99.90;;;;;;5073079;28;20701;-69
2021/03/07 05:12:03;;;;;;;;;;;-0.30;99.90;;;;;;5074301;28;19908;-70
2021/03/07 05:14:29;;;;;;;;;;;-0.20;99.90;;;;;;5073205;28;19912;-70
2021/03/07 05:16:54;;;;;;;;;;;-0.30;99.90;;;;;;5074241;28;19920;-70
2021/03/07 05:19:20;;;;;;;;;;;-0.40;99.90;;;;;;5073716;28;19920;-72
2021/03/07 05:21:46;;;;;;;;;;;-0.50;99.90;;;;;;5074244;28;19910;-70
2021/03/07 05:24:11;;;;;;;;;;;-0.40;99.90;;;;;;5074225;28;19919;-70
2021/03/07 05:26:37;;;;;;;;;;;-0.30;99.90;;;;;;5073645;28;20125;-71
2021/03/07 05:29:02;;;;;;;;;;;-0.20;99.90;;;;;;5073742;28;19920;-71
2021/03/07 05:31:28;;;;;;;;;;;-0.30;99.90;;;;;;5072365;28;19912;-74
2021/03/07 05:33:53;;;;;;;;;;;-0.20;99.90;;;;;;5072845;28;20415;-70
2021/03/07 05:36:19;;;;;;;;;;;-0.10;99.90;;;;;;5073443;28;20277;-70
2021/03/07 05:38:45;;;;;;;;;;;-0.10;99.90;;;;;;5073246;28;19921;-70
2021/03/07 05:41:11;;;;;;;;;;;0.00;99.90;;;;;;5073687;28;19947;-71
2021/03/07 05:43:37;;;;;;;;;;;0.30;99.90;;;;;;5073478;28;19967;-69
2021/03/07 05:46:03;;;;;;;;;;;0.40;99.90;;;;;;5073099;28;19909;-70
2021/03/07 05:48:28;;;;;;;;;;;0.60;99.90;;;;;;5073519;28;20278;-69
2021/03/07 05:50:54;;;;;;;;;;;0.70;99.90;;;;;;5074096;28;19995;-69
2021/03/07 05:53:20;;;;;;;;;;;0.60;99.90;;;;;;5073463;28;20048;-71
2021/03/07 05:55:45;;;;;;;;;;;0.70;99.90;;;;;;5073379;28;19920;-71
2021/03/07 05:58:12;;;;;;;;;;;0.70;99.90;;;;;;5073737;28;19993;-69
2021/03/07 06:00:38;;;;;;;;;;;0.90;99.90;;;;;;5072159;28;20276;-69
2021/03/07 06:03:03;;;;;;;;;;;0.90;99.90;;;;;;5073514;28;19915;-71
2021/03/07 06:05:29;;;;;;;;;;;1.10;99.90;;;;;;5073556;28;19908;-72
2021/03/07 06:07:55;;;;;;;;;;;1.00;99.90;;;;;;5072187;28;19916;-72
2021/03/07 06:10:27;;;;;;;;;;;1.20;99.90;;;;;;5072977;28;20342;-75
2021/03/07 06:12:57;;;;;;;;;;;1.40;99.90;;;;;;5072718;28;20277;-71
2021/03/07 06:15:23;;;;;;;;;;;1.50;99.90;;;;;;5073264;28;19981;-71
2021/03/07 06:17:49;;;;;;;;;;;1.60;99.90;;;;;;5072673;28;20383;-73
2021/03/07 06:20:15;;;;;;;;;;;1.60;99.90;;;;;;5073561;28;19912;-72
2021/03/07 06:22:50;;;;;;;;;;;1.60;99.90;;;;;;5072873;28;19962;-71
2021/03/07 06:25:16;;;;;;;;;;;1.90;99.90;;;;;;5073222;28;20006;-70
2021/03/07 06:27:42;;;;;;;;;;;2.00;99.90;;;;;;5073504;28;19955;-71
2021/03/07 06:30:08;;;;;;;;;;;;;;;;;;5073095;28;20389;-69
2021/03/07 06:32:34;;;;;;;;;;;;;;;;;;5073211;28;19928;-71
2021/03/07 06:34:59;;;;;;;;;;;2.60;99.90;;;;;;5072920;28;20342;-71
2021/03/07 06:37:25;;;;;;;;;;;;;;;;;;5072880;28;20411;-72
2021/03/07 06:39:51;;;;;;;;;;;2.70;99.90;;;;;;5073586;28;20003;-72
2021/03/07 06:42:17;;;;;;;;;;;2.70;99.90;;;;;;5072709;28;20294;-70
2021/03/07 06:44:53;;;;;;;;;;;2.90;99.90;;;;;;5074440;28;19908;-73
2021/03/07 06:47:19;;;;;;;;;;;2.80;99.90;;;;;;5076917;28;19909;-72
2021/03/07 06:49:45;;;;;;;;;;;3.10;99.90;;;;;;5077094;28;20011;-70
2021/03/07 06:52:20;;;;;;;;;;;3.00;99.90;;;;;;5075560;28;20359;-71
2021/03/07 06:55:02;;;;;;;;;;;2.90;99.90;;;;;;5076599;28;19908;-70
2021/03/07 06:57:28;;;;;;;;;;;2.90;99.90;;;;;;5076428;28;19916;-72
2021/03/07 06:59:53;;;;;;;;;;;3.20;99.90;;;;;;5076671;28;19919;-71
2021/03/07 07:02:20;;;;;;;;;;;;;;;;;;5076487;28;19908;-73
2021/03/07 07:04:46;;;;;;;;;;;3.10;99.90;;;;;;5075179;28;19908;-71
2021/03/07 07:07:12;;;;;;;;;;;3.10;99.90;;;;;;5075768;28;19935;-70
2021/03/07 07:09:39;;;;;;;;;;;3.10;99.90;;;;;;5075993;28;19912;-69
2021/03/07 07:12:05;;;;;;;;;;;3.20;99.90;;;;;;5076701;28;19909;-71
2021/03/07 07:14:34;;;;;;;;;;;;;;;;;;5076578;28;19914;-71
2021/03/07 07:17:00;;;;;;;;;;;3.50;99.90;;;;;;5076265;28;19913;-73
2021/03/07 07:19:25;;;;;;;;;;;3.80;99.90;;;;;;5077071;28;19918;-69
2021/03/07 07:21:51;;;;;;;;;;;3.70;99.90;;;;;;5076740;28;20258;-68
2021/03/07 07:24:16;;;;;;;;;;;3.70;99.90;;;;;;5074908;28;20354;-70
2021/03/07 07:26:45;;;;;;;;;;;3.80;99.90;;;;;;5076540;28;19915;-69
2021/03/07 07:29:11;;;;;;;;;;;3.90;99.90;;;;;;5076004;28;20019;-69
2021/03/07 07:31:51;;;;;;;;;;;3.80;99.90;;;;;;5074877;28;20390;-69
2021/03/07 07:34:20;;;;;;;;;;;3.80;99.90;;;;;;5076530;28;19928;-70
2021/03/07 07:36:48;;;;;;;;;;;4.00;99.90;;;;;;5074533;28;20023;-70
2021/03/07 07:39:15;;;;;;;;;;;4.10;99.90;;;;;;5074056;28;19912;-69
2021/03/07 07:41:41;;;;;;;;;;;4.30;99.90;;;;;;5074718;28;19909;-69
2021/03/07 07:44:08;;;;;;;;;;;4.00;99.90;;;;;;5064404;28;20015;-70
2021/03/07 07:46:34;;;;;;;;;;;4.10;99.90;;;;;;5056901;28;19909;-69
2021/03/07 07:49:02;;;;;;;;;;;4.20;99.90;;;;;;5057175;28;19977;-70
2021/03/07 07:51:28;;;;;;;;;;;;;;;;;;5054585;28;19963;-70
2021/03/07 07:53:53;;;;;;;;;;;4.60;99.90;;;;;;5055882;28;19960;-70
2021/03/07 07:56:37;;;;;;;;;;;4.70;99.90;;;;;;5058901;28;19955;-70
2021/03/07 07:59:04;;;;;;;;;;;4.90;99.90;;;;;;5059204;28;20039;-71
2021/03/07 08:01:48;;;;;;;;;;;4.90;99.90;;;;;;5060030;28;19916;-71
2021/03/07 08:04:28;;;;;;;;;;;5.00;99.90;;;;;;5055810;28;19959;-71
2021/03/07 08:06:56;;;;;;;;;;;;;;;;;;5064032;28;19913;-70
2021/03/07 08:09:40;;;;;;;;;;;5.00;99.90;;;;;;5066180;28;20039;-71
2021/03/07 08:12:24;;;;;;;;;;;4.80;99.90;;;;;;5084993;28;19913;-71
2021/03/07 08:14:52;;;;;;;;;;;4.90;99.90;;;;;;5065423;28;19920;-69
2021/03/07 08:17:36;;;;;;;;;;;4.90;99.90;;;;;;5055381;28;20007;-71
2021/03/07 08:20:02;;;;;;;;;;;5.10;99.90;;;;;;5054206;28;19920;-72
2021/03/07 08:22:47;;;;;;;;;;;5.10;99.90;;;;;;5057531;28;19917;-69
2021/03/07 08:25:13;;;;;;;;;;;5.40;99.90;;;;;;5074600;28;19920;-71
2021/03/07 08:27:41;;;;;;;;;;;5.30;98.70;;;;;;5074020;28;19909;-71
2021/03/07 08:30:11;;;;;;;;;;;5.00;99.30;;;;;;5073733;28;19913;-71
2021/03/07 08:32:43;;;;;;;;;;;5.10;99.90;;;;;;5073835;28;19920;-71
2021/03/07 08:35:09;;;;;;;;;;;5.40;98.20;;;;;;5074491;28;19913;-69
2021/03/07 08:37:34;;;;;;;;;;;5.60;99.90;;;;;;5074509;28;19924;-72
2021/03/07 08:40:18;;;;;;;;;;;5.60;96.40;;;;;;5074248;28;20247;-71
2021/03/07 08:42:44;;;;;;;;;;;5.70;98.00;;;;;;5073850;28;19913;-73
2021/03/07 08:45:15;;;;;;;;;;;5.60;96.30;;;;;;5073992;28;20000;-71
2021/03/07 08:47:54;;;;;;;;;;;5.60;99.00;;;;;;5069112;28;19962;-73
2021/03/07 08:50:21;;;;;;;;;;;5.70;91.50;;;;;;5074635;28;19969;-73
2021/03/07 08:52:46;;;;;;;;;;;5.80;87.30;;;;;;5073642;28;19973;-70
2021/03/07 08:55:12;;;;;;;;;;;6.00;92.30;;;;;;5073846;28;19909;-72
2021/03/07 08:57:43;;;;;;;;;;;6.20;88.00;;;;;;5074104;28;20349;-73
2021/03/07 09:00:09;;;;;;;;;;;6.50;90.40;;;;;;5074849;28;19918;-69
2021/03/07 09:02:34;;;;;;;;;;;6.40;87.20;;;;;;5074013;28;20007;-70
2021/03/07 09:05:00;;;;;;;;;;;6.40;90.50;;;;;;5073704;28;20419;-70
2021/03/07 09:07:29;;;;;;;;;;;6.40;86.50;;;;;;5073467;28;19913;-70
2021/03/07 09:09:55;;;;;;;;;;;5.80;81.10;;;;;;5072724;28;19939;-71
2021/03/07 09:12:22;;;;;;;;;;;6.50;74.60;;;;;;5073858;28;20274;-72
2021/03/07 09:14:48;;;;;;;;;;;;;;;;;;5073630;28;19912;-75
2021/03/07 09:17:21;;;;;;;;;;;6.90;68.90;;;;;;5073503;28;20323;-72
2021/03/07 09:19:47;;;;;;;;;;;6.80;70.80;;;;;;5074173;28;19942;-74
2021/03/07 09:22:20;;;;;;;;;;;7.00;66.80;;;;;;5072891;28;20429;-73
2021/03/07 09:24:52;;;;;;;;;;;7.00;70.30;;;;;;5066069;28;19923;-71
2021/03/07 09:27:18;;;;;;;;;;;7.20;74.50;;;;;;5070981;28;19913;-71
2021/03/07 09:29:54;;;;;;;;;;;7.40;94.50;;;;;;5070607;28;19939;-69
2021/03/07 09:32:37;;;;;;;;;;;7.30;72.60;;;;;;5060838;28;19935;-71
2021/03/07 09:35:22;;;;;;;;;;;7.40;69.00;;;;;;5068962;28;19940;-69
2021/03/07 09:38:03;;;;;;;;;;;7.10;66.20;;;;;;5066005;28;19921;-69
2021/03/07 09:40:35;;;;;;;;;;;7.30;69.90;;;;;;5062682;28;20236;-71
2021/03/07 09:43:01;;;;;;;;;;;7.50;69.70;;;;;;5057504;28;19955;-70
2021/03/07 09:45:28;;;;;;;;;;;7.40;69.90;;;;;;5054603;28;19947;-71
2021/03/07 09:47:54;;;;;;;;;;;7.60;69.20;;;;;;5053060;28;19912;-70
2021/03/07 09:50:21;;;;;;;;;;;7.80;75.30;;;;;;5055719;28;20243;-70
2021/03/07 09:52:46;;;;;;;;;;;7.70;74.80;;;;;;5057996;28;19916;-69
2021/03/07 09:55:12;;;;;;;;;;;7.60;77.40;;;;;;5073527;28;20321;-70
2021/03/07 09:57:38;;;;;;;;;;;7.70;83.30;;;;;;5063199;28;19920;-71
2021/03/07 10:00:04;;;;;;;;;;;7.30;80.30;;;;;;5054106;28;19924;-71
2021/03/07 10:02:34;;;;;;;;;;;7.60;81.60;;;;;;5054357;28;20003;-68
2021/03/07 10:05:08;;;;;;;;;;;7.80;79.30;;;;;;5052276;28;20019;-69
2021/03/07 10:07:34;;;;;;;;;;;7.20;88.30;;;;;;5058922;28;20642;-70
2021/03/07 10:10:00;;;;;;;;;;;7.70;90.50;;;;;;5063768;28;19913;-71
2021/03/07 10:12:26;;;;;;;;;;;;;;;;;;5058784;28;19912;-70
2021/03/07 10:14:52;;;;;;;;;;;7.90;58.90;;;;;;5054270;28;19916;-70
2021/03/07 10:17:18;;;;;;;;;;;7.80;59.80;;;;;;5054346;28;19967;-74
2021/03/07 10:19:45;;;;;;;;;;;7.80;61.40;;;;;;5057622;28;19916;-70
2021/03/07 10:22:11;;;;;;;;;;;7.90;61.60;;;;;;5061472;28;20340;-71
2021/03/07 10:24:37;;;;;;;;;;;8.00;62.00;;;;;;5061100;28;19928;-71
2021/03/07 10:27:03;;;;;;;;;;;;;;;;;;5065590;28;20310;-72
2021/03/07 10:29:38;;;;;;;;;;;8.30;68.20;;;;;;5072703;28;20355;-70
2021/03/07 10:32:06;;;;;;;;;;;;;;;;;;5066663;28;19935;-71
2021/03/07 10:34:34;;;;;;;;;;;;;;;;;;5066194;28;19929;-73
2021/03/07 10:37:03;;;;;;;;;;;;;;;;;;5064811;28;19939;-75
2021/03/07 10:39:28;;;;;;;;;;;8.50;67.80;;;;;;5067729;28;19921;-70
2021/03/07 10:42:07;;;;;;;;;;;8.70;69.70;;;;;;5074055;28;20511;-73
2021/03/07 10:44:33;;;;;;;;;;;8.60;71.80;;;;;;5064302;28;19912;-70
2021/03/07 10:47:17;;;;;;;;;;;8.40;70.10;;;;;;5064799;28;19912;-69
2021/03/07 10:49:46;;;;;;;;;;;8.40;71.30;;;;;;5063133;28;19951;-78
2021/03/07 10:52:12;;;;;;;;;;;8.50;76.50;;;;;;5065073;28;19931;-75
2021/03/07 10:54:38;;;;;;;;;;;8.50;75.20;;;;;;5069973;28;19913;-72
2021/03/07 10:57:05;;;;;;;;;;;8.60;75.10;;;;;;5058664;28;19967;-71
2021/03/07 10:59:31;;;;;;;;;;;8.80;77.80;;;;;;5071427;28;19957;-70
2021/03/07 11:01:57;;;;;;;;;;;8.80;76.40;;;;;;5074128;28;19935;-73
2021/03/07 11:04:22;;;;;;;;;;;8.80;73.90;;;;;;5071102;28;19912;-71
2021/03/07 11:06:48;;;;;;;;;;;8.80;71.80;;;;;;5075371;28;19950;-70
2021/03/07 11:09:14;;;;;;;;;;;8.60;73.60;;;;;;5060420;28;19962;-74
2021/03/07 11:11:41;;;;;;;;;;;8.70;72.30;;;;;;5074952;28;20351;-72
2021/03/07 11:14:07;;;;;;;;;;;8.70;73.00;;;;;;5058698;28;20414;-73
2021/03/07 11:16:33;;;;;;;;;;;8.90;74.90;;;;;;5066615;28;20018;-74
2021/03/07 11:18:58;;;;;;;;;;;8.70;75.10;;;;;;5061288;28;20297;-73
2021/03/07 11:21:26;;;;;;;;;;;;;;;;;;5061258;28;19916;-71
2021/03/07 11:23:52;;;;;;;;;;;8.80;52.80;;;;;;5070608;28;19956;-74
2021/03/07 11:26:17;;;;;;;;;;;9.00;53.70;;;;;;5058690;28;20391;-76
2021/03/07 11:28:43;;;;;;;;;;;9.00;55.90;;;;;;5062190;28;19916;-75
2021/03/07 11:32:35;;;;;;;42.40;14.57;;;9.30;63.00;;;;;;5122558;27;20348;-71
2021/03/07 11:35:01;;;;;;;12.30;5.78;;;9.30;65.10;;;;;;5119511;27;20031;-71
2021/03/07 11:37:26;;;;;;;10.07;3.22;;;9.20;64.50;;;;;;5118144;27;20031;-74
2021/03/07 11:39:52;;;;;;;6.50;2.80;;;9.20;65.40;;;;;;5130779;27;20019;-70
2021/03/07 11:42:19;;;;;;;10.55;3.88;;;;;;;;;;5124330;27;20023;-70
2021/03/07 11:44:45;;;;;;;6.68;3.63;;;;;;;;;;5147445;27;20532;-71
2021/03/07 11:47:11;;;;;;;10.45;4.70;;;;;;;;;;5137281;27;20531;-70
2021/03/07 11:49:37;;;;;;;7.93;4.20;;;;;;;;;;5135104;27;20396;-74
2021/03/07 11:52:03;;;;;;;7.00;3.35;;;;;;;;;;5131957;27;20457;-76
2021/03/07 11:54:29;;;;;;;6.43;2.70;;;;;;;;;;5131010;27;20484;-76
2021/03/07 11:56:55;;;;;;;10.50;4.88;;;;;;;;;;5125642;27;20024;-73
2021/03/07 11:59:21;;;;;;;8.73;3.75;;;;;;;;;;5111880;27;20470;-78
2021/03/07 12:01:47;;;;;;;10.63;4.32;;;;;;;;;;5112037;27;20800;-73
2021/03/07 12:04:14;;;;;;;7.38;3.58;;;;;;;;;;5112247;27;20374;-73
2021/03/07 12:06:40;;;;;;;14.00;7.22;;;;;;;;;;5112568;27;20030;-73
2021/03/07 12:09:05;;;;;;;11.38;5.60;;;9.50;60.50;;;;;;5114738;27;20385;-74
2021/03/07 12:11:31;;;;;;;8.27;4.20;;;9.60;62.60;;;;;;5113337;27;20035;-74
2021/03/07 12:13:57;;;;;;;7.85;3.42;;;9.60;57.60;;;;;;5112232;27;20023;-73
2021/03/07 12:16:23;;;;;;;7.72;3.58;;;9.70;61.00;;;;;;5116048;27;20016;-75
2021/03/07 12:18:48;;;;;;;6.28;2.75;;;9.60;59.60;;;;;;5110695;27;20065;-72
2021/03/07 12:21:14;;;;;;;9.05;4.70;;;9.90;59.10;;;;;;5113220;27;20129;-72
2021/03/07 12:23:40;;;;;;;9.05;4.05;;;9.70;62.90;;;;;;5113511;27;20478;-76
2021/03/07 12:26:06;;;;;;;8.02;4.10;;;9.70;63.30;;;;;;5114985;27;20119;-75
2021/03/07 12:28:32;;;;;;;9.68;4.47;;;9.60;65.80;;;;;;5113086;27;20024;-73
2021/03/07 12:30:59;;;;;;;25.45;13.80;;;9.60;68.20;;;;;;5110979;27;20048;-78
2021/03/07 12:33:26;;;;;;;20.42;5.90;;;9.80;66.70;;;;;;5111819;27;20055;-77
2021/03/07 12:35:52;;;;;;;8.45;3.90;;;9.80;65.50;;;;;;5112240;27;20027;-73
2021/03/07 12:38:18;;;;;;;7.43;3.65;;;9.90;67.10;;;;;;5113951;27;20038;-75
2021/03/07 12:40:44;;;;;;;6.13;2.55;;;9.80;60.20;;;;;;5115380;27;20453;-75
2021/03/07 12:43:09;;;;;;;7.68;3.53;;;9.80;65.20;;;;;;5116966;27;20496;-76
2021/03/07 12:45:35;;;;;;;9.73;4.80;;;9.70;65.60;;;;;;5114558;27;20023;-71
2021/03/07 12:48:01;;;;;;;6.47;2.85;;;9.80;66.90;;;;;;5117294;27;20024;-74
2021/03/07 12:50:27;;;;;;;6.22;2.55;;;9.90;69.90;;;;;;5120502;27;20126;-77
2021/03/07 12:52:53;;;;;;;10.07;5.07;;;9.90;79.50;;;;;;5114281;27;20027;-74
2021/03/07 12:55:19;;;;;;;8.60;4.53;;;10.10;74.60;;;;;;5114401;27;20521;-75
2021/03/07 12:57:45;;;;;;;7.85;3.88;;;9.90;68.80;;;;;;5112944;27;20032;-76
2021/03/07 13:00:11;;;;;;;12.50;5.00;;;10.10;71.50;;;;;;5113235;27;20401;-77
2021/03/07 13:02:37;;;;;;;7.28;3.38;;;10.20;74.80;;;;;;5103535;27;20095;-75
2021/03/07 13:05:03;;;;;;;9.38;4.57;;;9.90;79.20;;;;;;5107980;28;20462;-73
2021/03/07 13:07:32;;;;;;;7.22;3.13;;;;;;;;;;5103505;27;20027;-81
2021/03/07 13:09:58;;;;;;;10.13;5.20;;;;;;;;;;5103191;27;20359;-75
2021/03/07 13:12:25;;;;;;;11.70;4.85;;;;;;;;;;5114639;27;20039;-74
2021/03/07 13:14:51;;;;;;;6.32;2.85;;;;;;;;;;5109965;27;20028;-75
2021/03/07 13:17:17;;;;;;;9.98;4.03;;;;;;;;;;5108994;27;20025;-75
2021/03/07 13:19:43;;;;;;;11.07;5.43;;;10.50;57.00;;;;;;5106339;27;20445;-82
2021/03/07 13:22:08;;;;;;;10.55;4.00;;;10.60;61.30;;;;;;5098948;27;20118;-79
2021/03/07 13:24:34;;;;;;;12.45;4.63;;;10.50;61.70;;;;;;5099245;27;20027;-77
2021/03/07 13:27:00;;;;;;;12.30;4.90;;;10.70;68.00;;;;;;5095814;27;20420;-76
2021/03/07 13:29:26;;;;;;;16.27;6.63;;;;;;;;;;5096730;27;20063;-76
2021/03/07 13:31:52;;;;;;;130.52;41.95;;;;;;;;;;5103856;27;20056;-76
2021/03/07 13:34:18;;;;;;;22.83;8.10;;;10.80;74.00;;;;;;5115993;27;20463;-77
2021/03/07 13:36:43;;;;;;;11.13;4.60;;;10.70;73.90;;;;;;5098746;27;20035;-76
2021/03/07 13:39:10;;;;;;;19.70;6.00;;;;;;;;;;5106183;27;20016;-74
2021/03/07 13:41:36;;;;;;;49.38;17.13;;;;;;;;;;5104571;27;20088;-73
2021/03/07 13:44:02;;;;;;;77.90;24.67;;;;;;;;;;5121225;27;20072;-74
2021/03/07 13:46:28;;;;;;;32.75;10.25;;;;;;;;;;5122780;27;20031;-72
2021/03/07 13:48:54;;;;;;;83.38;26.40;;;;;;;;;;5109227;27;20044;-74
2021/03/07 13:51:20;;;;;;;101.95;32.30;;;;;;;;;;5117370;27;20031;-72
2021/03/07 13:53:46;;;;;;;176.32;55.20;;;;;;;;;;5107049;28;20024;-77
2021/03/07 13:56:12;;;;;;;174.05;53.00;;;;;;;;;;5109551;27;20486;-75
2021/03/07 13:58:38;;;;;;;168.55;51.22;;;;;;;;;;5121837;27;20473;-72
2021/03/07 14:01:04;;;;;;;169.65;51.35;;;;;;;;;;5108759;27;20019;-74
2021/03/07 14:03:31;;;;;;;168.23;51.22;;;;;;;;;;5099955;27;20043;-72
2021/03/07 14:05:57;;;;;;;166.60;50.60;;;;;;;;;;5095214;27;20023;-73
2021/03/07 14:08:23;;;;;;;164.27;49.95;;;;;;;;;;5124502;27;20012;-72
2021/03/07 14:10:49;;;;;;;162.32;50.40;;;;;;;;;;5118796;27;20200;-75
2021/03/07 14:13:15;;;;;;;149.57;48.28;;;;;;;;;;5102991;27;20016;-72
2021/03/07 14:15:41;;;;;;;154.18;49.47;;;;;;;;;;5098455;27;20448;-74
2021/03/07 14:18:07;;;;;;;161.88;50.60;;;12.10;42.50;;;;;;5125569;27;20055;-75
2021/03/07 14:20:33;;;;;;;147.73;49.55;;;12.50;42.50;;;;;;5122319;27;20035;-73
2021/03/07 14:22:59;;;;;;;144.68;49.22;;;12.60;41.80;;;;;;5112148;27;20008;-73
2021/03/07 14:25:25;;;;;;;140.15;49.22;;;13.90;42.40;;;;;;5106635;28;20020;-77
2021/03/07 14:27:51;;;;;;;149.35;50.70;;;;;;;;;;5103974;27;20111;-73
2021/03/07 14:30:17;;;;;;;149.48;50.50;;;;;;;;;;5106660;27;20469;-77
2021/03/07 14:32:44;;;;;;;149.63;50.10;;;;;;;;;;5110465;28;20024;-76
2021/03/07 14:35:11;;;;;;;159.88;51.03;;;18.30;66.20;;;;;;5106579;27;20020;-77
2021/03/07 14:37:37;;;;;;;159.50;52.60;;;18.20;40.00;;;;;;5101477;27;20027;-74
2021/03/07 14:40:09;;;;;;;135.45;41.55;;;18.80;35.70;;;;;;5107572;27;20015;-73